Nocc Pamplona — LALG5 — position and weather

sailwx.info

Track history (hours):
 
Tides and Currents Weather Stations Pressure Air Temp Water Temp Dewpoint Dewpoint Depression Visibility Wind Speed Wind Dir Waves Ship Positions

Nocc Pamplona

Last reported at 2014-Aug-27 18:33 UTC. Time now 2014-Aug-27 19:15 UTC.
Position N 35°26' E 139°45'.

Length 177 m; draft 7.1 m.

Type: Cargo ship. MMSI: 257349000.

Date/timePositionNaut miles runAvg speedWind from/ knotsBaromVisibWave heightAir tempDewpointWater temp
2014-Aug-27 18:33N 35°26' E 139°45'0 0.0
2014-Aug-27 17:30N 35°26' E 139°45'0 0.1
2014-Aug-27 16:33N 35°26' E 139°45'0 0.1
2014-Aug-27 15:33N 35°26' E 139°45'0 0.0
2014-Aug-27 14:33N 35°26' E 139°45'0 0.0
2014-Aug-27 13:30N 35°26' E 139°45'0 0.0
2014-Aug-27 12:33N 35°26' E 139°45'0 0.0
2014-Aug-27 11:33N 35°26' E 139°45'0 0.0
2014-Aug-27 10:33N 35°26' E 139°45'0 0.0
2014-Aug-27 09:33N 35°26' E 139°45'0 0.0
2014-Aug-27 08:33N 35°26' E 139°45'0 0.0
2014-Aug-27 07:33N 35°26' E 139°45'0 0.0
2014-Aug-27 06:33N 35°26' E 139°45'0 0.0
2014-Aug-27 05:33N 35°26' E 139°45'0 0.0
2014-Aug-27 04:33N 35°26' E 139°45'0 0.0
2014-Aug-27 03:33N 35°26' E 139°45'0 0.0
2014-Aug-27 02:33N 35°26' E 139°45'0 0.0
2014-Aug-27 01:33N 35°26' E 139°45'0 0.0
2014-Aug-27 00:33N 35°26' E 139°45'0 0.0
2014-Aug-26 23:34N 35°26' E 139°45'3 3.2
2014-Aug-26 22:33N 35°23' E 139°46'1010.2
2014-Aug-26 21:33N 35°13' E 139°47'9 8.6
2014-Aug-26 20:33N 35°04' E 139°45'8 8.1
2014-Aug-26 19:33N 34°57' E 139°42'8 8.1
2014-Aug-26 18:33N 34°49' E 139°39'  
2014-Aug-19 11:08N 01°16' E 104°11'1016.6
2014-Aug-19 10:33N 01°15' E 104°01'4 2.7
2014-Aug-19 09:16N 01°17' E 103°58'0 0.0
2014-Aug-19 06:22N 01°17' E 103°58'0 0.0
2014-Aug-19 05:31N 01°17' E 103°58'0 0.0
2014-Aug-19 04:16N 01°17' E 103°58'0 0.0
2014-Aug-19 03:13N 01°17' E 103°58'0 0.0
2014-Aug-19 02:25N 01°17' E 103°58'0 0.0
2014-Aug-19 01:31N 01°17' E 103°58'0 0.1
2014-Aug-19 00:31N 01°17' E 103°59'0 0.1
2014-Aug-18 23:33N 01°17' E 103°58'0 0.0
2014-Aug-18 22:34N 01°17' E 103°58'0 0.0
2014-Aug-18 21:33N 01°17' E 103°58'0 0.1
2014-Aug-18 20:33N 01°17' E 103°59'5 4.9
2014-Aug-18 19:33N 01°17' E 104°03'7 7.5
2014-Aug-18 18:33N 01°24' E 104°00'7 0.5
2014-Aug-18 04:31N 01°19' E 104°06'  
Track history (hours):
 
Tides and Currents Weather Stations Pressure Air Temp Water Temp Dewpoint Dewpoint Depression Visibility Wind Speed Wind Dir Waves Ship Positions

Nocc Pamplona

Last reported at 2014-Aug-27 18:33 UTC. Time now 2014-Aug-27 19:15 UTC.
Position N 35°26' E 139°45'.

Length 177 m; draft 7.1 m.

Type: Cargo ship. MMSI: 257349000.

Date/timePositionNaut miles runAvg speedWind from/ knotsBaromVisibWave heightAir tempDewpointWater temp
2014-Aug-27 18:33N 35°26' E 139°45'0 0.0
2014-Aug-27 17:30N 35°26' E 139°45'0 0.1
2014-Aug-27 16:33N 35°26' E 139°45'0 0.1
2014-Aug-27 15:33N 35°26' E 139°45'0 0.0
2014-Aug-27 14:33N 35°26' E 139°45'0 0.0
2014-Aug-27 13:30N 35°26' E 139°45'0 0.0
2014-Aug-27 12:33N 35°26' E 139°45'0 0.0
2014-Aug-27 11:33N 35°26' E 139°45'0 0.0
2014-Aug-27 10:33N 35°26' E 139°45'0 0.0
2014-Aug-27 09:33N 35°26' E 139°45'0 0.0
2014-Aug-27 08:33N 35°26' E 139°45'0 0.0
2014-Aug-27 07:33N 35°26' E 139°45'0 0.0
2014-Aug-27 06:33N 35°26' E 139°45'0 0.0
2014-Aug-27 05:33N 35°26' E 139°45'0 0.0
2014-Aug-27 04:33N 35°26' E 139°45'0 0.0
2014-Aug-27 03:33N 35°26' E 139°45'0 0.0
2014-Aug-27 02:33N 35°26' E 139°45'0 0.0
2014-Aug-27 01:33N 35°26' E 139°45'0 0.0
2014-Aug-27 00:33N 35°26' E 139°45'0 0.0
2014-Aug-26 23:34N 35°26' E 139°45'3 3.2
2014-Aug-26 22:33N 35°23' E 139°46'1010.2
2014-Aug-26 21:33N 35°13' E 139°47'9 8.6
2014-Aug-26 20:33N 35°04' E 139°45'8 8.1
2014-Aug-26 19:33N 34°57' E 139°42'8 8.1
2014-Aug-26 18:33N 34°49' E 139°39'  
2014-Aug-19 11:08N 01°16' E 104°11'1016.6
2014-Aug-19 10:33N 01°15' E 104°01'4 2.7
2014-Aug-19 09:16N 01°17' E 103°58'0 0.0
2014-Aug-19 06:22N 01°17' E 103°58'0 0.0
2014-Aug-19 05:31N 01°17' E 103°58'0 0.0
2014-Aug-19 04:16N 01°17' E 103°58'0 0.0
2014-Aug-19 03:13N 01°17' E 103°58'0 0.0
2014-Aug-19 02:25N 01°17' E 103°58'0 0.0
2014-Aug-19 01:31N 01°17' E 103°58'0 0.1
2014-Aug-19 00:31N 01°17' E 103°59'0 0.1
2014-Aug-18 23:33N 01°17' E 103°58'0 0.0
2014-Aug-18 22:34N 01°17' E 103°58'0 0.0
2014-Aug-18 21:33N 01°17' E 103°58'0 0.1
2014-Aug-18 20:33N 01°17' E 103°59'5 4.9
2014-Aug-18 19:33N 01°17' E 104°03'7 7.5
2014-Aug-18 18:33N 01°24' E 104°00'7 0.5
2014-Aug-18 04:31N 01°19' E 104°06'  

Dump ship's entire track history